NCAR-RAP Real-Time Weather Data

Output produced by METARs form (20 January 2018  03:36 UTC)
found at http://weather.rap.ucar.edu/surface/
 
KGFK 200253Z 22010KT 10SM FEW060 FEW150 SCT190 00/M02 A2961 RMK AO2 SLP038 T00001017 53022
KGFK 200153Z 25008KT 10SM FEW040 SCT120 BKN190 01/M01 A2959 RMK AO2 SLP031 T00111011
 
KRDR 200256Z AUTO 26008KT 10SM SCT190 00/M02 A2961 RMK AO2 SLP041 T00021022 52022 $
KRDR 200156Z AUTO 30008KT 10SM BKN190 02/M01 A2959 RMK AO2 SLP034 T00241014 $
 
KCKN 200315Z AUTO 26012KT 10SM CLR 01/M02 A2962 RMK AO2
KCKN 200255Z AUTO 25011KT 10SM CLR 01/M01 A2962 RMK AO2
KCKN 200235Z AUTO 26009KT 10SM CLR 01/M01 A2961 RMK AO2
KCKN 200215Z AUTO 25010KT 10SM CLR 00/M01 A2961 RMK AO2
KCKN 200155Z AUTO 24008KT 10SM CLR 01/M02 A2960 RMK AO2
 
KBIS 200252Z 31004KT 10SM CLR 03/M01 A2970 RMK AO2 SLP079 T00281006 51019
KBIS 200152Z 28008KT 10SM CLR 03/M01 A2969 RMK AO2 SLP073 T00281006
 
KJMS 200256Z AUTO 28008KT 10SM CLR 01/M02 A2966 RMK AO2 SLP061 T00111022 53020
KJMS 200156Z AUTO 25009KT 10SM CLR 02/M02 A2963 RMK AO2 SLP051 T00171017
 
KFAR 200253Z 26008KT 10SM CLR 01/M02 A2965 RMK AO2 SLP051 T00111017 53018
KFAR 200153Z 24008KT 10SM CLR 01/M01 A2964 RMK AO2 PRESRR SLP047 T00061011
 
KJKJ 200335Z AUTO 28008KT 10SM CLR M01/M03 A2967 RMK AO2
KJKJ 200315Z AUTO 28008KT 10SM CLR M01/M03 A2966 RMK AO2
KJKJ 200255Z AUTO 26006KT 10SM CLR M01/M03 A2966 RMK AO2
KJKJ 200235Z AUTO 26006KT 10SM CLR M01/M03 A2966 RMK AO2
KJKJ 200215Z AUTO 26004KT 10SM CLR M01/M02 A2965 RMK AO2
KJKJ 200155Z AUTO 25004KT 10SM CLR 01/M02 A2964 RMK AO2